Time;durP1;ratioP1;P1;durP2;ratioP2;P2;SDS_P1;SDS_P2;PMS_P1;PMS_P2;Temp;Humidity;BMP_temperature;BMP_pressure;BME280_temperature;BME280_humidity;BME280_pressure;Samples;Min_cycle;Max_cycle;Signal;HPM_P1;HPM_P2
2022/11/09 00:01:40;;;;;;;5.82;1.50;;;11.60;99.90;;;;;;5070042;28;20087;-77
2022/11/09 00:04:08;;;;;;;4.63;1.50;;;11.60;99.90;;;;;;5119916;28;20049;-77
2022/11/09 00:06:35;;;;;;;3.53;1.35;;;11.70;99.90;;;;;;5086494;28;20037;-77
2022/11/09 00:09:04;;;;;;;3.90;1.45;;;11.70;99.90;;;;;;5086465;28;20486;-77
2022/11/09 00:11:31;;;;;;;5.72;1.52;;;11.70;99.90;;;;;;5119648;28;20741;-78
2022/11/09 00:13:57;;;;;;;3.90;1.40;;;11.80;99.90;;;;;;5102656;28;20037;-77
2022/11/09 00:16:24;;;;;;;3.97;1.60;;;11.80;99.90;;;;;;5085561;28;20131;-78
2022/11/09 00:18:52;;;;;;;4.55;1.20;;;11.90;99.90;;;;;;5069528;28;20103;-77
2022/11/09 00:21:21;;;;;;;6.45;1.42;;;12.00;99.90;;;;;;5069642;28;20041;-77
2022/11/09 00:23:49;;;;;;;5.03;1.77;;;12.10;99.90;;;;;;5102623;28;20571;-77
2022/11/09 00:26:17;;;;;;;5.63;1.60;;;12.20;99.90;;;;;;5119432;28;20059;-77
2022/11/09 00:28:44;;;;;;;5.53;1.58;;;12.20;99.90;;;;;;5068855;28;20072;-77
2022/11/09 00:31:13;;;;;;;4.35;1.35;;;12.30;99.90;;;;;;5119566;28;20063;-77
2022/11/09 00:33:40;;;;;;;5.25;1.45;;;12.30;99.90;;;;;;5102671;28;20453;-77
2022/11/09 00:36:10;;;;;;;5.32;1.73;;;12.40;99.90;;;;;;5085715;28;20060;-77
2022/11/09 00:38:41;;;;;;;3.63;1.52;;;12.40;99.90;;;;;;5119009;28;20528;-77
2022/11/09 00:41:10;;;;;;;4.40;1.40;;;12.40;99.90;;;;;;5069177;28;20140;-77
2022/11/09 00:43:37;;;;;;;5.68;1.15;;;12.40;99.90;;;;;;5102664;28;20041;-77
2022/11/09 00:46:04;;;;;;;3.78;1.55;;;12.40;99.90;;;;;;5133902;28;20094;-78
2022/11/09 00:48:30;;;;;;;3.13;1.50;;;12.40;99.90;;;;;;5061647;28;20461;-78
2022/11/09 00:50:57;;;;;;;7.38;1.27;;;12.30;99.90;;;;;;5089052;28;20037;-78
2022/11/09 00:53:25;;;;;;;3.88;1.52;;;12.30;99.90;;;;;;5086439;28;20036;-78
2022/11/09 00:56:04;;;;;;;4.13;1.45;;;12.30;99.90;;;;;;5075772;28;20052;-77
2022/11/09 00:58:32;;;;;;;3.80;1.30;;;12.20;99.90;;;;;;5081391;28;20621;-78
2022/11/09 01:01:05;;;;;;;3.70;1.50;;;12.20;99.90;;;;;;5092818;28;20408;-77
2022/11/09 01:03:32;;;;;;;5.70;1.50;;;12.10;99.90;;;;;;5071642;28;20416;-77
2022/11/09 01:05:59;;;;;;;7.43;1.60;;;12.10;99.90;;;;;;5052572;28;20041;-77
2022/11/09 01:08:26;;;;;;;3.40;1.40;;;12.10;99.90;;;;;;5052861;28;20056;-77
2022/11/09 01:10:52;;;;;;;3.13;1.30;;;12.00;99.90;;;;;;5068776;28;20037;-77
2022/11/09 01:13:19;;;;;;;5.47;1.58;;;12.00;99.90;;;;;;5052875;28;20091;-77
2022/11/09 01:15:51;;;;;;;4.25;1.40;;;11.90;99.90;;;;;;5086197;28;20048;-77
2022/11/09 01:18:19;;;;;;;4.60;1.50;;;11.90;99.90;;;;;;5089354;28;20041;-78
2022/11/09 01:20:48;;;;;;;7.35;1.83;;;11.80;99.90;;;;;;5072893;28;20040;-77
2022/11/09 01:23:16;;;;;;;4.00;1.70;;;11.80;99.90;;;;;;5123409;28;20040;-77
2022/11/09 01:25:43;;;;;;;6.05;1.48;;;11.80;99.90;;;;;;5072648;28;20041;-77
2022/11/09 01:28:11;;;;;;;6.70;1.52;;;11.80;99.90;;;;;;5089536;28;20090;-77
2022/11/09 01:30:41;;;;;;;3.75;1.67;;;11.80;99.90;;;;;;5072383;28;20110;-78
2022/11/09 01:33:10;;;;;;;4.18;2.22;;;11.90;99.90;;;;;;5073056;28;20041;-77
2022/11/09 01:35:38;;;;;;;5.22;1.55;;;11.90;99.90;;;;;;5072447;28;20155;-77
2022/11/09 01:38:06;;;;;;;5.20;1.48;;;11.90;99.90;;;;;;5122651;28;20040;-77
2022/11/09 01:40:36;;;;;;;4.05;1.60;;;11.90;99.90;;;;;;5105266;28;20040;-77
2022/11/09 01:43:23;;;;;;;4.95;2.05;;;12.00;99.90;;;;;;5072926;28;20131;-77
2022/11/09 01:46:26;;;;;;;3.78;1.48;;;11.90;99.90;;;;;;5105874;28;20037;-77
2022/11/09 01:48:59;;;;;;;7.55;1.60;;;11.90;99.90;;;;;;5125728;28;20095;-77
2022/11/09 01:51:34;;;;;;;3.90;1.70;;;11.90;99.90;;;;;;5103882;28;20051;-77
2022/11/09 01:54:15;;;;;;;4.70;1.50;;;11.80;99.90;;;;;;5052822;28;20033;-77
2022/11/09 01:56:44;;;;;;;6.20;1.80;;;11.80;99.90;;;;;;5122554;28;20159;-77
2022/11/09 01:59:16;;;;;;;9.25;1.75;;;11.80;99.90;;;;;;5072336;28;20080;-77
2022/11/09 02:01:43;;;;;;;3.38;1.40;;;11.80;99.90;;;;;;5071888;28;20409;-78
2022/11/09 02:04:18;;;;;;;4.78;1.30;;;11.80;99.90;;;;;;5117528;28;20073;-78
2022/11/09 02:06:46;;;;;;;5.47;1.40;;;11.80;99.90;;;;;;5091896;28;20076;-77
2022/11/09 02:09:35;;;;;;;5.25;1.63;;;11.80;99.90;;;;;;5092083;28;20279;-77
2022/11/09 02:12:02;;;;;;;4.72;1.67;;;11.80;99.90;;;;;;5091913;28;20389;-77
2022/11/09 02:14:30;;;;;;;6.93;1.50;;;11.80;99.90;;;;;;5108916;28;20456;-77
2022/11/09 02:16:57;;;;;;;5.40;1.58;;;11.80;99.90;;;;;;5092167;28;20062;-78
2022/11/09 02:19:23;;;;;;;6.35;1.90;;;11.80;99.90;;;;;;5108776;28;20044;-78
2022/11/09 02:21:50;;;;;;;5.82;1.75;;;11.80;99.90;;;;;;5105587;28;20497;-78
2022/11/09 02:24:19;;;;;;;4.10;1.40;;;11.70;99.90;;;;;;5039465;28;20405;-78
2022/11/09 02:26:53;;;;;;;3.72;1.58;;;11.70;99.90;;;;;;5087216;28;20079;-78
2022/11/09 02:29:27;;;;;;;6.82;1.50;;;11.70;99.90;;;;;;5087760;28;20041;-78
2022/11/09 02:31:58;;;;;;;5.75;1.50;;;11.70;99.90;;;;;;5071385;28;20072;-78
2022/11/09 02:34:24;;;;;;;4.78;1.77;;;11.70;99.90;;;;;;5121813;28;20056;-78
2022/11/09 02:36:51;;;;;;;7.28;1.73;;;11.70;99.90;;;;;;5104466;28;20041;-78
2022/11/09 02:39:22;;;;;;;6.30;1.60;;;11.70;99.90;;;;;;5071685;28;20049;-78
2022/11/09 02:42:01;;;;;;;3.65;1.40;;;11.70;99.90;;;;;;5121516;28;20053;-77
2022/11/09 02:44:30;;;;;;;4.63;1.50;;;11.80;99.90;;;;;;5121455;28;20056;-77
2022/11/09 02:46:57;;;;;;;6.35;2.00;;;11.70;99.90;;;;;;5071273;28;20507;-77
2022/11/09 02:49:24;;;;;;;5.20;1.80;;;11.70;99.90;;;;;;5071542;28;20128;-78
2022/11/09 02:51:50;;;;;;;6.68;1.83;;;11.60;99.90;;;;;;5071095;28;20044;-77
2022/11/09 02:54:17;;;;;;;5.75;1.92;;;11.60;99.90;;;;;;5088373;28;20084;-77
2022/11/09 02:56:44;;;;;;;5.57;1.45;;;11.60;99.90;;;;;;5087938;28;20043;-77
2022/11/09 02:59:10;;;;;;;5.93;1.50;;;11.70;99.90;;;;;;5104296;28;20072;-77
2022/11/09 03:01:37;;;;;;;3.42;1.40;;;11.60;99.90;;;;;;5104403;28;20107;-78
2022/11/09 03:04:04;;;;;;;3.50;1.35;;;11.60;99.90;;;;;;5103771;28;20041;-78
2022/11/09 03:06:33;;;;;;;7.07;1.58;;;11.60;99.90;;;;;;5104198;28;20043;-77
2022/11/09 03:09:06;;;;;;;6.57;1.80;;;11.60;99.90;;;;;;5070693;28;20470;-77
2022/11/09 03:11:32;;;;;;;9.48;1.42;;;11.60;99.90;;;;;;5121246;28;20080;-78
2022/11/09 03:13:59;;;;;;;4.57;1.50;;;11.60;99.90;;;;;;5103871;28;20080;-78
2022/11/09 03:16:26;;;;;;;7.95;1.77;;;11.50;99.90;;;;;;5070809;28;20105;-77
2022/11/09 03:18:53;;;;;;;3.85;1.30;;;11.60;99.90;;;;;;5103728;28;20125;-78
2022/11/09 03:21:23;;;;;;;4.45;1.60;;;11.50;99.90;;;;;;5121005;28;20049;-77
2022/11/09 03:23:50;;;;;;;6.13;1.30;;;11.50;99.90;;;;;;5104145;28;20041;-77
2022/11/09 03:26:16;;;;;;;5.50;1.35;;;11.40;99.90;;;;;;5120591;28;20863;-77
2022/11/09 03:28:43;;;;;;;5.32;1.40;;;11.40;99.90;;;;;;5087141;28;20082;-77
2022/11/09 03:31:10;;;;;;;3.00;1.20;;;11.40;99.90;;;;;;5087107;28;20393;-77
2022/11/09 03:33:37;;;;;;;9.52;1.60;;;11.40;99.90;;;;;;5103499;28;20048;-78
2022/11/09 03:36:04;;;;;;;4.28;1.30;;;11.40;99.90;;;;;;5087033;28;20396;-77
2022/11/09 03:38:30;;;;;;;5.38;2.00;;;11.40;99.90;;;;;;5120080;28;20045;-77
2022/11/09 03:41:01;;;;;;;7.45;1.40;;;11.40;99.90;;;;;;5086699;28;20049;-78
2022/11/09 03:43:28;;;;;;;5.15;1.25;;;11.40;99.90;;;;;;5103217;28;20044;-77
2022/11/09 03:45:56;;;;;;;5.65;1.42;;;11.40;99.90;;;;;;5120252;28;20037;-77
2022/11/09 03:48:23;;;;;;;7.57;1.30;;;11.40;99.90;;;;;;5120412;28;20447;-78
2022/11/09 03:50:50;;;;;;;9.93;1.35;;;11.40;99.90;;;;;;5120465;28;20040;-77
2022/11/09 03:53:16;;;;;;;7.45;1.30;;;11.40;99.90;;;;;;5120006;28;20405;-77
2022/11/09 03:55:43;;;;;;;6.50;1.35;;;11.40;99.90;;;;;;5103370;28;20040;-77
2022/11/09 03:58:12;;;;;;;6.70;1.40;;;11.60;99.90;;;;;;5103101;28;20481;-77
2022/11/09 04:00:38;;;;;;;4.70;1.23;;;11.40;99.90;;;;;;5069978;28;20473;-77
2022/11/09 04:03:05;;;;;;;6.72;1.48;;;11.40;99.90;;;;;;5085964;28;20099;-77
2022/11/09 04:05:32;;;;;;;3.78;1.20;;;11.40;99.90;;;;;;5086373;28;20037;-77
2022/11/09 04:07:59;;;;;;;4.82;1.20;;;11.40;99.90;;;;;;5102885;28;20067;-78
2022/11/09 04:10:26;;;;;;;3.15;1.02;;;11.40;99.90;;;;;;5086488;28;20040;-77
2022/11/09 04:12:53;;;;;;;6.90;1.35;;;11.40;99.90;;;;;;5086072;28;20487;-77
2022/11/09 04:15:20;;;;;;;2.72;1.10;;;11.40;99.90;;;;;;5102401;28;20037;-77
2022/11/09 04:17:58;;;;;;;5.60;1.40;;;11.30;99.90;;;;;;5066104;28;20041;-77
2022/11/09 04:20:26;;;;;;;3.95;1.30;;;11.30;99.90;;;;;;5066620;28;20042;-78
2022/11/09 04:23:04;;;;;;;10.77;1.73;;;11.30;99.90;;;;;;5033726;28;20041;-78
2022/11/09 04:25:33;;;;;;;4.63;1.27;;;11.30;99.90;;;;;;5077743;28;20057;-77
2022/11/09 04:28:01;;;;;;;4.53;1.60;;;11.30;99.90;;;;;;5049456;28;20056;-78
2022/11/09 04:30:30;;;;;;;4.20;1.23;;;11.30;99.90;;;;;;5099174;28;20467;-77
2022/11/09 04:32:59;;;;;;;5.15;1.67;;;11.40;99.90;;;;;;5049216;28;20739;-77
2022/11/09 04:35:28;;;;;;;7.00;1.17;;;11.30;99.90;;;;;;5033099;28;20034;-77
2022/11/09 04:37:58;;;;;;;5.45;1.23;;;11.30;99.90;;;;;;5099077;28;20071;-77
2022/11/09 04:40:27;;;;;;;5.93;1.17;;;11.30;99.90;;;;;;5049531;28;20183;-77
2022/11/09 04:42:54;;;;;;;5.03;1.30;;;11.30;99.90;;;;;;5033223;28;20044;-77
2022/11/09 04:45:21;;;;;;;7.63;1.42;;;11.30;99.90;;;;;;5049282;28;20037;-78
2022/11/09 04:47:48;;;;;;;5.90;1.30;;;11.30;99.90;;;;;;5049355;28;20048;-77
2022/11/09 04:50:15;;;;;;;5.72;1.60;;;11.30;99.90;;;;;;5032453;28;20041;-77
2022/11/09 04:52:42;;;;;;;4.38;1.30;;;11.20;99.90;;;;;;5049409;28;20087;-77
2022/11/09 04:55:08;;;;;;;2.92;1.38;;;11.20;99.90;;;;;;5099195;28;20044;-77
2022/11/09 04:57:35;;;;;;;4.38;1.58;;;11.10;99.90;;;;;;5082308;28;20045;-77
2022/11/09 05:00:02;;;;;;;4.22;1.73;;;11.10;99.90;;;;;;5082069;28;20592;-77
2022/11/09 05:02:29;;;;;;;5.45;1.75;;;11.10;99.90;;;;;;5032822;28;20410;-77
2022/11/09 05:04:55;;;;;;;11.48;1.70;;;11.10;99.90;;;;;;5068728;28;20037;-77
2022/11/09 05:07:22;;;;;;;6.28;1.58;;;11.10;99.90;;;;;;5068722;28;20072;-77
2022/11/09 05:09:49;;;;;;;7.70;1.48;;;11.10;99.90;;;;;;5036122;28;20045;-77
2022/11/09 05:12:15;;;;;;;9.65;1.83;;;11.10;99.90;;;;;;5052184;28;20131;-77
2022/11/09 05:14:42;;;;;;;3.58;1.20;;;11.20;99.90;;;;;;5068827;28;20041;-78
2022/11/09 05:17:09;;;;;;;4.10;1.50;;;11.10;99.90;;;;;;5073523;28;20558;-77
2022/11/09 05:19:35;;;;;;;5.35;1.40;;;11.20;99.90;;;;;;5102477;28;20045;-78
2022/11/09 05:23:57;;;;;;;5.57;1.35;;;11.20;99.90;;;;;;5102364;28;20087;-77
2022/11/09 05:24:50;;;;;;;6.22;1.42;;;11.30;99.90;;;;;;5071624;28;20055;-77
2022/11/09 05:27:17;;;;;;;8.38;1.40;;;11.30;99.90;;;;;;5036215;28;20552;-77
2022/11/09 05:29:44;;;;;;;4.57;1.52;;;11.30;99.90;;;;;;5085455;28;20037;-78
2022/11/09 05:32:10;;;;;;;5.20;1.50;;;11.20;99.90;;;;;;5068444;28;20037;-77
2022/11/09 05:34:37;;;;;;;3.40;1.42;;;11.30;99.90;;;;;;5052614;28;20044;-77
2022/11/09 05:37:04;;;;;;;3.08;1.20;;;11.30;99.90;;;;;;5052283;28;20048;-77
2022/11/09 05:39:30;;;;;;;6.85;2.03;;;11.30;99.90;;;;;;5085292;28;20135;-77
2022/11/09 05:41:57;;;;;;;5.18;1.30;;;11.30;99.90;;;;;;5102361;28;20117;-77
2022/11/09 05:44:24;;;;;;;5.78;1.25;;;11.30;99.90;;;;;;5101461;28;20186;-77
2022/11/09 05:46:51;;;;;;;6.03;1.40;;;11.30;99.90;;;;;;5071472;28;20042;-77
2022/11/09 05:49:17;;;;;;;4.75;1.40;;;11.40;99.90;;;;;;5081475;28;20519;-78
2022/11/09 05:51:44;;;;;;;6.05;1.20;;;11.30;99.90;;;;;;5081767;28;20561;-77
2022/11/09 05:54:11;;;;;;;4.55;1.48;;;11.40;99.90;;;;;;5065112;28;20047;-77
2022/11/09 05:56:37;;;;;;;3.10;1.50;;;11.40;99.90;;;;;;5065080;28;20107;-77
2022/11/09 05:59:04;;;;;;;7.03;1.50;;;11.50;99.90;;;;;;5081803;28;20547;-77
2022/11/09 06:01:31;;;;;;;5.18;1.45;;;11.20;99.90;;;;;;5064975;28;20057;-77
2022/11/09 06:03:57;;;;;;;5.55;1.65;;;11.50;99.90;;;;;;5085482;28;20045;-77
2022/11/09 06:06:24;;;;;;;6.65;1.52;;;11.60;99.90;;;;;;5088846;28;20116;-77
2022/11/09 06:08:51;;;;;;;6.05;1.60;;;11.60;99.90;;;;;;5088809;28;20408;-77
2022/11/09 06:11:17;;;;;;;3.88;1.38;;;11.60;99.90;;;;;;5088577;28;20397;-78
2022/11/09 06:13:44;;;;;;;6.93;1.55;;;11.50;99.90;;;;;;5055656;28;20044;-77
2022/11/09 06:16:11;;;;;;;9.32;1.80;;;11.50;99.90;;;;;;5088714;28;20041;-77
2022/11/09 06:18:37;;;;;;;11.15;1.70;;;11.50;99.90;;;;;;5087820;28;20049;-77
2022/11/09 06:21:05;;;;;;;5.85;1.35;;;11.40;99.90;;;;;;5088571;28;20067;-77
2022/11/09 06:23:33;;;;;;;8.05;1.80;;;11.40;99.90;;;;;;5071855;28;20137;-77
2022/11/09 06:26:02;;;;;;;5.35;1.23;;;11.40;99.90;;;;;;5121700;28;20195;-77
2022/11/09 06:28:28;;;;;;;3.10;1.00;;;11.40;99.90;;;;;;5102995;28;20045;-77
2022/11/09 06:31:00;;;;;;;7.97;1.20;;;11.40;99.90;;;;;;5071752;28;20503;-78
2022/11/09 06:33:29;;;;;;;6.15;1.33;;;11.40;99.90;;;;;;5087849;28;20041;-77
2022/11/09 06:35:56;;;;;;;4.05;1.20;;;11.40;99.90;;;;;;5104858;28;20037;-78
2022/11/09 06:38:25;;;;;;;2.80;1.20;;;11.40;99.90;;;;;;5103279;28;20091;-77
2022/11/09 06:40:56;;;;;;;5.53;1.48;;;11.30;99.90;;;;;;5071053;28;20060;-78
2022/11/09 06:43:24;;;;;;;4.13;1.63;;;11.30;99.90;;;;;;5121532;28;20047;-78
2022/11/09 06:45:51;;;;;;;4.63;1.30;;;11.30;99.90;;;;;;5121692;28;20033;-77
2022/11/09 06:48:18;;;;;;;5.47;1.90;;;11.30;99.90;;;;;;5088035;28;20044;-77
2022/11/09 06:50:45;;;;;;;5.22;1.40;;;11.20;99.90;;;;;;5088116;28;20044;-77
2022/11/09 06:53:14;;;;;;;7.03;1.40;;;11.20;99.90;;;;;;5104335;28;20048;-77
2022/11/09 06:55:41;;;;;;;5.75;1.20;;;11.20;99.90;;;;;;5087850;28;20127;-78
2022/11/09 06:58:14;;;;;;;5.78;1.20;;;11.20;99.90;;;;;;5088048;28;20065;-77
2022/11/09 07:00:43;;;;;;;4.82;1.10;;;11.20;99.90;;;;;;5087665;28;20037;-77
2022/11/09 07:03:14;;;;;;;7.32;1.83;;;11.20;99.90;;;;;;5087894;28;20072;-77
2022/11/09 07:05:41;;;;;;;5.40;1.23;;;11.10;99.90;;;;;;5120668;28;20116;-77
2022/11/09 07:08:08;;;;;;;4.97;1.42;;;11.10;99.90;;;;;;5104106;28;20076;-77
2022/11/09 07:10:35;;;;;;;4.43;1.30;;;11.10;99.90;;;;;;5082535;28;20436;-77
2022/11/09 07:13:03;;;;;;;4.10;1.25;;;11.10;99.90;;;;;;5084512;28;20531;-77
2022/11/09 07:15:30;;;;;;;4.50;1.10;;;11.10;99.90;;;;;;5073542;28;20503;-78
2022/11/09 07:17:58;;;;;;;5.93;1.42;;;11.10;99.90;;;;;;5090891;28;20099;-78
2022/11/09 07:20:26;;;;;;;4.95;1.38;;;11.10;99.90;;;;;;5091294;28;20077;-78
2022/11/09 07:22:52;;;;;;;4.65;1.20;;;11.10;99.90;;;;;;5087102;28;20511;-77
2022/11/09 07:25:19;;;;;;;8.30;1.20;;;11.10;99.90;;;;;;5087350;28;20120;-77
2022/11/09 07:27:46;;;;;;;6.80;1.48;;;11.10;99.90;;;;;;5104729;28;20072;-77
2022/11/09 07:30:14;;;;;;;5.70;1.42;;;11.10;99.90;;;;;;5083279;28;20409;-77
2022/11/09 07:32:40;;;;;;;5.05;1.08;;;11.10;99.90;;;;;;5097705;28;20086;-77
2022/11/09 07:35:08;;;;;;;9.70;1.40;;;11.10;99.90;;;;;;5070560;28;20040;-77
2022/11/09 07:37:35;;;;;;;3.63;0.85;;;11.10;99.90;;;;;;5092593;28;20044;-77
2022/11/09 07:40:03;;;;;;;6.05;0.93;;;11.10;99.90;;;;;;5098169;28;20064;-77
2022/11/09 07:42:30;;;;;;;7.28;1.20;;;11.20;99.90;;;;;;5078129;28;20111;-77
2022/11/09 07:44:56;;;;;;;7.15;1.08;;;11.20;99.90;;;;;;5046175;28;20143;-77
2022/11/09 07:47:23;;;;;;;6.38;1.20;;;11.20;99.90;;;;;;5062925;28;20036;-77
2022/11/09 07:49:50;;;;;;;4.07;1.13;;;11.20;99.90;;;;;;5043088;28;20147;-77
2022/11/09 07:52:16;;;;;;;9.65;1.35;;;11.20;99.90;;;;;;5074821;28;20037;-78
2022/11/09 07:54:43;;;;;;;4.30;1.30;;;11.30;99.90;;;;;;5061996;28;20036;-77
2022/11/09 07:57:09;;;;;;;9.80;2.17;;;11.30;99.90;;;;;;5059684;28;20102;-78
2022/11/09 07:59:36;;;;;;;7.65;1.35;;;11.30;99.90;;;;;;5052811;28;20049;-78
2022/11/09 08:02:03;;;;;;;7.78;1.27;;;11.30;99.90;;;;;;5052700;28;20051;-76
2022/11/09 08:04:29;;;;;;;6.43;1.20;;;11.30;99.90;;;;;;5052421;28;20048;-77
2022/11/09 08:06:56;;;;;;;10.48;2.10;;;11.30;99.90;;;;;;5069306;28;20048;-77
2022/11/09 08:09:23;;;;;;;6.22;1.40;;;11.20;99.90;;;;;;5088642;28;20064;-77
2022/11/09 08:11:50;;;;;;;4.20;1.48;;;11.30;99.90;;;;;;5095471;28;20036;-76
2022/11/09 08:14:17;;;;;;;5.32;1.20;;;11.30;99.90;;;;;;5065363;28;20186;-77
2022/11/09 08:16:43;;;;;;;8.05;1.50;;;11.30;99.90;;;;;;5065935;28;20051;-77
2022/11/09 08:19:10;;;;;;;8.45;1.65;;;11.40;99.90;;;;;;5044517;28;20416;-77
2022/11/09 08:21:37;;;;;;;5.47;1.60;;;11.40;99.90;;;;;;5119151;28;20048;-78
2022/11/09 08:24:04;;;;;;;7.18;1.55;;;11.40;99.90;;;;;;5102607;28;20048;-78
2022/11/09 08:26:31;;;;;;;4.25;1.30;;;11.50;99.90;;;;;;5085255;28;20117;-77
2022/11/09 08:28:58;;;;;;;7.25;1.45;;;11.50;99.90;;;;;;5102038;28;20068;-76
2022/11/09 08:31:25;;;;;;;9.50;1.70;;;11.60;99.90;;;;;;5093631;28;20115;-77
2022/11/09 08:33:51;;;;;;;6.07;1.30;;;11.70;99.90;;;;;;5068556;28;20413;-77
2022/11/09 08:36:18;;;;;;;6.70;1.50;;;11.70;99.90;;;;;;5093467;28;20104;-76
2022/11/09 08:38:45;;;;;;;5.93;1.77;;;11.70;99.90;;;;;;5068468;28;20040;-77
2022/11/09 08:41:12;;;;;;;7.65;1.38;;;11.80;99.90;;;;;;5061029;28;20124;-76
2022/11/09 08:43:39;;;;;;;4.35;1.27;;;11.80;99.90;;;;;;5091917;28;20044;-76
2022/11/09 08:46:05;;;;;;;7.15;1.70;;;11.90;99.90;;;;;;5063894;28;20033;-76
2022/11/09 08:48:32;;;;;;;5.25;1.52;;;11.90;99.90;;;;;;5102971;28;20066;-77
2022/11/09 08:50:59;;;;;;;5.97;1.45;;;12.00;99.90;;;;;;5078204;28;20500;-76
2022/11/09 08:53:27;;;;;;;9.13;1.65;;;12.00;99.90;;;;;;5074253;28;20025;-76
2022/11/09 08:55:54;;;;;;;8.65;1.63;;;12.00;99.90;;;;;;5085520;28;20029;-76
2022/11/09 08:58:21;;;;;;;5.82;1.25;;;12.10;99.90;;;;;;5078797;28;20056;-77
2022/11/09 09:00:47;;;;;;;5.93;1.65;;;12.10;99.90;;;;;;5068736;28;20037;-77
2022/11/09 09:03:14;;;;;;;9.95;1.63;;;12.10;99.90;;;;;;5076763;28;20033;-76
2022/11/09 09:05:41;;;;;;;5.60;1.40;;;12.20;99.90;;;;;;5070466;28;20128;-77
2022/11/09 09:08:10;;;;;;;8.50;2.55;;;12.20;99.90;;;;;;5083608;28;20068;-77
2022/11/09 09:10:37;;;;;;;7.78;1.52;;;12.20;99.90;;;;;;5072017;28;20040;-76
2022/11/09 09:13:03;;;;;;;7.97;1.70;;;12.30;99.90;;;;;;5087188;28;20455;-77
2022/11/09 09:15:30;;;;;;;6.45;1.50;;;12.40;99.90;;;;;;5035177;28;20044;-78
2022/11/09 09:18:02;;;;;;;6.50;1.45;;;12.30;99.90;;;;;;5069094;28;20091;-77
2022/11/09 09:20:28;;;;;;;7.30;1.70;;;12.30;99.90;;;;;;5074221;28;20060;-78
2022/11/09 09:22:59;;;;;;;3.20;1.30;;;12.40;99.90;;;;;;5070660;28;20083;-78
2022/11/09 09:25:27;;;;;;;5.03;1.52;;;12.40;99.90;;;;;;5060939;28;20041;-77
2022/11/09 09:27:53;;;;;;;7.47;1.30;;;12.50;99.90;;;;;;5054566;28;20048;-77
2022/11/09 09:30:20;;;;;;;7.53;1.50;;;12.50;99.90;;;;;;5083159;28;20043;-78
2022/11/09 09:32:47;;;;;;;9.88;1.80;;;12.50;99.90;;;;;;5046567;28;20584;-77
2022/11/09 09:35:14;;;;;;;10.02;2.13;;;12.60;99.90;;;;;;5051701;28;20052;-77
2022/11/09 09:37:43;;;;;;;11.15;1.73;;;12.60;99.90;;;;;;5128992;28;20048;-78
2022/11/09 09:40:24;;;;;;;8.43;2.45;;;12.70;99.90;;;;;;5108573;28;20048;-78
2022/11/09 09:42:53;;;;;;;8.05;1.73;;;12.70;99.90;;;;;;5075661;28;20037;-78
2022/11/09 09:45:27;;;;;;;6.53;1.65;;;12.70;99.90;;;;;;5058002;28;20068;-77
2022/11/09 09:47:59;;;;;;;5.60;1.38;;;12.70;99.90;;;;;;5077883;28;20032;-77
2022/11/09 09:50:31;;;;;;;9.85;1.40;;;12.70;99.90;;;;;;5086899;28;20052;-77
2022/11/09 09:53:09;;;;;;;6.88;1.25;;;12.70;99.90;;;;;;5082329;28;20051;-78
2022/11/09 09:55:41;;;;;;;6.38;1.52;;;12.80;99.90;;;;;;5072183;28;20051;-77
2022/11/09 09:58:25;;;;;;;10.05;2.20;;;12.80;99.90;;;;;;5075416;28;20040;-78
2022/11/09 10:00:57;;;;;;;6.88;1.77;;;12.90;99.90;;;;;;5095164;28;20041;-78
2022/11/09 10:03:24;;;;;;;4.10;1.50;;;12.90;99.90;;;;;;5100438;28;20491;-77
2022/11/09 10:06:05;;;;;;;4.55;1.55;;;12.90;99.90;;;;;;5045644;28;20119;-77
2022/11/09 10:08:48;;;;;;;7.93;1.50;;;13.00;99.90;;;;;;5115418;28;20047;-79
2022/11/09 10:11:17;;;;;;;11.15;2.10;;;13.00;99.90;;;;;;5107990;28;20640;-78
2022/11/09 10:14:07;;;;;;;9.45;1.75;;;13.20;99.90;;;;;;5077808;28;20447;-78
2022/11/09 10:16:47;;;;;;;5.15;1.73;;;13.20;99.90;;;;;;5033727;28;20053;-77
2022/11/09 10:19:50;;;;;;;4.38;1.45;;;13.30;99.90;;;;;;5097726;28;20095;-78
2022/11/09 10:22:50;;;;;;;10.35;1.90;;;13.30;99.90;;;;;;5088158;28;20450;-78
2022/11/09 10:25:25;;;;;;;8.23;2.03;;;13.30;99.90;;;;;;4994625;28;20054;-78
2022/11/09 10:28:02;;;;;;;7.05;1.95;;;13.30;99.90;;;;;;5079593;28;20055;-78
2022/11/09 10:30:29;;;;;;;4.85;1.70;;;13.30;99.90;;;;;;5093561;28;20484;-80
2022/11/09 10:33:08;;;;;;;4.75;1.60;;;13.20;99.90;;;;;;5085079;28;20047;-77
2022/11/09 10:35:43;;;;;;;5.47;1.55;;;13.20;99.90;;;;;;5099574;28;20064;-77
2022/11/09 10:38:34;;;;;;;5.78;1.50;;;13.20;99.90;;;;;;5081807;28;20611;-77
2022/11/09 10:41:25;;;;;;;8.60;2.03;;;13.10;99.90;;;;;;5078912;28;20044;-77
2022/11/09 10:43:51;;;;;;;5.68;1.67;;;13.20;99.90;;;;;;5081575;28;20041;-78
2022/11/09 10:46:20;;;;;;;6.75;1.67;;;13.20;99.90;;;;;;5107542;28;20044;-78
2022/11/09 10:48:46;;;;;;;5.28;1.75;;;13.20;99.90;;;;;;5073300;28;20532;-78
2022/11/09 10:51:45;;;;;;;7.40;1.60;;;13.30;99.90;;;;;;5074541;28;20040;-78
2022/11/09 10:54:21;;;;;;;16.20;1.83;;;13.30;99.90;;;;;;5017198;28;20124;-77
2022/11/09 10:56:50;;;;;;;;;;;13.30;99.90;;;;;;5091325;28;20048;-78
2022/11/09 10:59:32;;;;;;;5.93;1.40;;;13.40;99.90;;;;;;5086193;28;19920;-77
2022/11/09 11:01:58;;;;;;;8.02;2.22;;;13.40;99.90;;;;;;5107380;28;20373;-78
2022/11/09 11:04:25;;;;;;;7.03;1.65;;;13.30;99.90;;;;;;5073979;28;20127;-77
2022/11/09 11:06:52;;;;;;;4.18;1.70;;;13.30;99.90;;;;;;5073776;28;20047;-78
2022/11/09 11:09:20;;;;;;;3.50;1.20;;;13.40;99.90;;;;;;5058519;28;20043;-77
2022/11/09 11:11:47;;;;;;;4.45;1.42;;;13.40;99.90;;;;;;5103531;28;20752;-78
2022/11/09 11:14:33;;;;;;;8.18;1.80;;;13.40;99.90;;;;;;5036918;28;20048;-77
2022/11/09 11:17:00;;;;;;;8.40;1.98;;;13.40;99.90;;;;;;5077760;28;20432;-77
2022/11/09 11:19:37;;;;;;;7.82;1.55;;;13.40;99.90;;;;;;5080406;28;20041;-77
2022/11/09 11:22:18;;;;;;;7.38;1.88;;;13.40;99.90;;;;;;5061534;28;20094;-78
2022/11/09 11:24:59;;;;;;;8.82;1.85;;;13.50;99.90;;;;;;5088201;28;20123;-78
2022/11/09 11:27:29;;;;;;;7.63;1.60;;;13.50;99.90;;;;;;5074466;28;20048;-78
2022/11/09 11:30:13;;;;;;;7.78;1.48;;;13.50;99.90;;;;;;5078973;28;20413;-77
2022/11/09 11:32:41;;;;;;;10.88;1.77;;;13.50;99.90;;;;;;5078957;28;20039;-77
2022/11/09 11:35:17;;;;;;;5.47;1.67;;;13.60;99.90;;;;;;5073253;28;20106;-78
2022/11/09 11:38:16;;;;;;;5.85;1.58;;;13.70;99.90;;;;;;5070398;28;20049;-78
2022/11/09 11:41:11;;;;;;;10.73;1.60;;;13.70;99.90;;;;;;5069868;28;20044;-78
2022/11/09 11:43:41;;;;;;;5.05;1.70;;;13.70;99.90;;;;;;5066301;28;20052;-77
2022/11/09 11:46:19;;;;;;;8.52;1.77;;;13.70;99.90;;;;;;5095952;28;20424;-77
2022/11/09 11:49:03;;;;;;;6.43;1.88;;;13.70;99.90;;;;;;5121401;28;20041;-79
2022/11/09 11:51:38;;;;;;;6.53;1.70;;;13.70;99.90;;;;;;5074563;28;20091;-78
2022/11/09 11:54:25;;;;;;;7.15;1.90;;;13.70;99.90;;;;;;5089747;28;20044;-77
2022/11/09 11:56:55;;;;;;;5.90;1.80;;;13.60;99.90;;;;;;5084464;28;20055;-77
2022/11/09 11:59:37;;;;;;;8.55;1.60;;;13.60;99.90;;;;;;5069861;28;20516;-78
2022/11/09 12:02:15;;;;;;;9.32;2.42;;;13.60;99.90;;;;;;5049899;28;20072;-78
2022/11/09 12:04:53;;;;;;;6.70;1.60;;;13.60;99.90;;;;;;5050007;28;20041;-78
2022/11/09 12:07:34;;;;;;;4.68;1.40;;;13.60;99.90;;;;;;5049978;28;20508;-77
2022/11/09 12:10:27;;;;;;;5.63;1.65;;;13.60;99.90;;;;;;5049958;28;20033;-78
2022/11/09 12:13:00;;;;;;;5.97;1.58;;;13.50;99.90;;;;;;5049986;28;20036;-78
2022/11/09 12:16:08;;;;;;;10.55;1.60;;;13.50;99.90;;;;;;5049795;28;20040;-78
2022/11/09 12:18:37;;;;;;;6.63;2.10;;;13.50;99.90;;;;;;5030691;28;20506;-77
2022/11/09 12:21:17;;;;;;;6.15;1.60;;;13.60;99.90;;;;;;5059305;28;20040;-77
2022/11/09 12:23:55;;;;;;;7.85;1.52;;;13.60;99.90;;;;;;5061374;28;20412;-78
2022/11/09 12:27:07;;;;;;;7.68;1.55;;;13.60;99.90;;;;;;5095121;28;20048;-78
2022/11/09 12:29:49;;;;;;;5.95;1.52;;;13.60;99.90;;;;;;5123476;28;20412;-78
2022/11/09 12:32:49;;;;;;;8.60;1.30;;;13.60;99.90;;;;;;5089596;28;20069;-78
2022/11/09 12:35:25;;;;;;;7.78;1.45;;;13.50;99.90;;;;;;5097022;28;20076;-78
2022/11/09 12:38:02;;;;;;;4.70;1.30;;;13.50;99.90;;;;;;5086142;28;20494;-80
2022/11/09 12:40:41;;;;;;;6.63;1.33;;;13.50;99.90;;;;;;5098979;28;20077;-78
2022/11/09 12:43:24;;;;;;;5.10;1.75;;;13.40;99.90;;;;;;5066248;28;20040;-78
2022/11/09 12:45:52;;;;;;;10.27;1.65;;;13.40;99.90;;;;;;5069020;28;20378;-78
2022/11/09 12:48:34;;;;;;;6.55;1.60;;;13.40;99.90;;;;;;5085982;28;20063;-78
2022/11/09 12:51:03;;;;;;;6.28;1.65;;;13.40;99.90;;;;;;5102436;28;20072;-78
2022/11/09 12:53:36;;;;;;;7.15;1.50;;;13.40;99.90;;;;;;5093604;28;20481;-78
2022/11/09 12:56:19;;;;;;;5.35;1.50;;;13.40;99.90;;;;;;5085174;28;20053;-74
2022/11/09 12:58:46;;;;;;;8.00;1.27;;;13.40;99.90;;;;;;5068762;28;20048;-74
2022/11/09 13:01:33;;;;;;;5.00;1.50;;;13.40;99.90;;;;;;5085074;28;20041;-78
2022/11/09 13:04:02;;;;;;;5.03;1.20;;;13.40;99.90;;;;;;5065370;28;20041;-79